sensor_id;sensor_type;location;lat;lon;timestamp;temperature;humidity
1546;DHT22;766;51.502;9.752;2023-01-15T00:00:06;8.00;99.90
1546;DHT22;766;51.502;9.752;2023-01-15T00:02:34;8.00;99.90
1546;DHT22;766;51.502;9.752;2023-01-15T00:05:04;8.00;99.90
1546;DHT22;766;51.502;9.752;2023-01-15T00:07:33;8.00;99.90
1546;DHT22;766;51.502;9.752;2023-01-15T00:10:02;8.00;99.90
1546;DHT22;766;51.502;9.752;2023-01-15T00:12:32;8.00;99.90
1546;DHT22;766;51.502;9.752;2023-01-15T00:15:00;8.00;99.90
1546;DHT22;766;51.502;9.752;2023-01-15T00:17:29;8.00;99.90
1546;DHT22;766;51.502;9.752;2023-01-15T00:19:57;7.90;99.90
1546;DHT22;766;51.502;9.752;2023-01-15T00:22:25;7.90;99.90
1546;DHT22;766;51.502;9.752;2023-01-15T00:24:55;8.00;99.90
1546;DHT22;766;51.502;9.752;2023-01-15T00:27:41;8.00;99.90
1546;DHT22;766;51.502;9.752;2023-01-15T00:30:13;7.90;99.90
1546;DHT22;766;51.502;9.752;2023-01-15T00:32:42;7.90;99.90
1546;DHT22;766;51.502;9.752;2023-01-15T00:35:12;7.90;99.90
1546;DHT22;766;51.502;9.752;2023-01-15T00:37:41;7.90;99.90
1546;DHT22;766;51.502;9.752;2023-01-15T00:40:12;7.90;99.90
1546;DHT22;766;51.502;9.752;2023-01-15T00:42:40;7.90;99.90
1546;DHT22;766;51.502;9.752;2023-01-15T00:45:14;7.90;99.90
1546;DHT22;766;51.502;9.752;2023-01-15T00:47:44;7.90;99.90
1546;DHT22;766;51.502;9.752;2023-01-15T00:50:14;7.90;99.90
1546;DHT22;766;51.502;9.752;2023-01-15T00:52:43;7.80;99.90
1546;DHT22;766;51.502;9.752;2023-01-15T00:55:13;7.90;99.90
1546;DHT22;766;51.502;9.752;2023-01-15T00:57:41;7.90;99.90
1546;DHT22;766;51.502;9.752;2023-01-15T01:00:13;7.80;99.90
1546;DHT22;766;51.502;9.752;2023-01-15T01:02:41;7.90;99.90
1546;DHT22;766;51.502;9.752;2023-01-15T01:05:10;7.80;99.90
1546;DHT22;766;51.502;9.752;2023-01-15T01:07:38;7.80;99.90
1546;DHT22;766;51.502;9.752;2023-01-15T01:10:07;7.80;99.90
1546;DHT22;766;51.502;9.752;2023-01-15T01:12:37;7.90;99.90
1546;DHT22;766;51.502;9.752;2023-01-15T01:15:06;7.80;99.90
1546;DHT22;766;51.502;9.752;2023-01-15T01:17:37;7.80;99.90
1546;DHT22;766;51.502;9.752;2023-01-15T01:20:07;7.80;99.90
1546;DHT22;766;51.502;9.752;2023-01-15T01:22:36;7.70;99.90
1546;DHT22;766;51.502;9.752;2023-01-15T01:25:05;7.70;99.90
1546;DHT22;766;51.502;9.752;2023-01-15T01:27:33;7.70;99.90
1546;DHT22;766;51.502;9.752;2023-01-15T01:30:04;7.60;99.90
1546;DHT22;766;51.502;9.752;2023-01-15T01:32:33;7.60;99.90
1546;DHT22;766;51.502;9.752;2023-01-15T01:35:01;7.60;99.90
1546;DHT22;766;51.502;9.752;2023-01-15T01:37:32;7.60;99.90
1546;DHT22;766;51.502;9.752;2023-01-15T01:40:02;7.50;99.90
1546;DHT22;766;51.502;9.752;2023-01-15T01:42:31;7.50;99.90
1546;DHT22;766;51.502;9.752;2023-01-15T01:45:05;7.50;99.90
1546;DHT22;766;51.502;9.752;2023-01-15T01:47:34;7.40;99.90
1546;DHT22;766;51.502;9.752;2023-01-15T01:50:08;7.40;99.90
1546;DHT22;766;51.502;9.752;2023-01-15T01:52:42;7.40;99.90
1546;DHT22;766;51.502;9.752;2023-01-15T01:55:14;7.40;99.90
1546;DHT22;766;51.502;9.752;2023-01-15T01:57:44;7.30;99.90
1546;DHT22;766;51.502;9.752;2023-01-15T02:00:16;7.10;99.90
1546;DHT22;766;51.502;9.752;2023-01-15T02:02:45;7.00;99.90
1546;DHT22;766;51.502;9.752;2023-01-15T02:05:30;6.90;99.90
1546;DHT22;766;51.502;9.752;2023-01-15T02:08:02;6.80;99.90
1546;DHT22;766;51.502;9.752;2023-01-15T02:10:31;6.70;99.90
1546;DHT22;766;51.502;9.752;2023-01-15T02:13:02;6.50;99.90
1546;DHT22;766;51.502;9.752;2023-01-15T02:15:35;6.30;99.90
1546;DHT22;766;51.502;9.752;2023-01-15T02:18:13;6.20;99.90
1546;DHT22;766;51.502;9.752;2023-01-15T02:20:47;6.10;99.90
1546;DHT22;766;51.502;9.752;2023-01-15T02:23:32;6.00;99.90
1546;DHT22;766;51.502;9.752;2023-01-15T02:26:19;5.80;99.90
1546;DHT22;766;51.502;9.752;2023-01-15T02:28:55;5.80;99.90
1546;DHT22;766;51.502;9.752;2023-01-15T02:31:29;5.70;99.90
1546;DHT22;766;51.502;9.752;2023-01-15T02:34:04;5.60;99.90
1546;DHT22;766;51.502;9.752;2023-01-15T02:36:36;5.60;99.90
1546;DHT22;766;51.502;9.752;2023-01-15T02:39:07;5.50;99.90
1546;DHT22;766;51.502;9.752;2023-01-15T02:41:40;5.40;99.90
1546;DHT22;766;51.502;9.752;2023-01-15T02:44:13;5.50;99.90
1546;DHT22;766;51.502;9.752;2023-01-15T02:46:44;5.40;99.90
1546;DHT22;766;51.502;9.752;2023-01-15T02:49:16;5.40;99.90
1546;DHT22;766;51.502;9.752;2023-01-15T02:51:47;5.40;99.90
1546;DHT22;766;51.502;9.752;2023-01-15T02:54:18;5.50;99.90
1546;DHT22;766;51.502;9.752;2023-01-15T02:56:47;5.40;99.90
1546;DHT22;766;51.502;9.752;2023-01-15T02:59:27;5.40;99.90
1546;DHT22;766;51.502;9.752;2023-01-15T03:01:59;5.30;99.90
1546;DHT22;766;51.502;9.752;2023-01-15T03:04:32;5.10;99.90
1546;DHT22;766;51.502;9.752;2023-01-15T03:07:07;5.20;99.90
1546;DHT22;766;51.502;9.752;2023-01-15T03:09:36;5.20;99.90
1546;DHT22;766;51.502;9.752;2023-01-15T03:12:09;5.20;99.90
1546;DHT22;766;51.502;9.752;2023-01-15T03:14:51;5.20;99.90
1546;DHT22;766;51.502;9.752;2023-01-15T03:17:27;5.20;99.90
1546;DHT22;766;51.502;9.752;2023-01-15T03:20:02;5.10;99.90
1546;DHT22;766;51.502;9.752;2023-01-15T03:22:35;5.00;99.90
1546;DHT22;766;51.502;9.752;2023-01-15T03:25:06;4.90;99.90
1546;DHT22;766;51.502;9.752;2023-01-15T03:27:36;5.00;99.90
1546;DHT22;766;51.502;9.752;2023-01-15T03:30:08;5.00;99.90
1546;DHT22;766;51.502;9.752;2023-01-15T03:32:38;5.00;99.90
1546;DHT22;766;51.502;9.752;2023-01-15T03:35:36;5.00;99.90
1546;DHT22;766;51.502;9.752;2023-01-15T03:37:56;5.00;99.90
1546;DHT22;766;51.502;9.752;2023-01-15T03:40:25;4.90;99.90
1546;DHT22;766;51.502;9.752;2023-01-15T03:42:56;4.80;99.90
1546;DHT22;766;51.502;9.752;2023-01-15T03:45:46;4.80;99.90
1546;DHT22;766;51.502;9.752;2023-01-15T03:48:21;4.80;99.90
1546;DHT22;766;51.502;9.752;2023-01-15T03:50:54;4.80;99.90
1546;DHT22;766;51.502;9.752;2023-01-15T03:53:29;4.70;99.90
1546;DHT22;766;51.502;9.752;2023-01-15T03:56:04;4.50;99.90
1546;DHT22;766;51.502;9.752;2023-01-15T03:58:38;4.30;99.90
1546;DHT22;766;51.502;9.752;2023-01-15T04:01:17;4.30;99.90
1546;DHT22;766;51.502;9.752;2023-01-15T04:03:48;4.30;99.90
1546;DHT22;766;51.502;9.752;2023-01-15T04:06:17;4.20;99.90
1546;DHT22;766;51.502;9.752;2023-01-15T04:08:48;4.10;99.90
1546;DHT22;766;51.502;9.752;2023-01-15T04:11:21;4.10;99.90
1546;DHT22;766;51.502;9.752;2023-01-15T04:13:50;4.10;99.90
1546;DHT22;766;51.502;9.752;2023-01-15T04:16:24;4.10;99.90
1546;DHT22;766;51.502;9.752;2023-01-15T04:18:53;4.10;99.90
1546;DHT22;766;51.502;9.752;2023-01-15T04:21:22;4.10;99.90
1546;DHT22;766;51.502;9.752;2023-01-15T04:23:50;4.10;99.90
1546;DHT22;766;51.502;9.752;2023-01-15T04:26:18;4.10;99.90
1546;DHT22;766;51.502;9.752;2023-01-15T04:28:46;4.10;99.90
1546;DHT22;766;51.502;9.752;2023-01-15T04:31:15;4.10;99.90
1546;DHT22;766;51.502;9.752;2023-01-15T04:33:45;4.10;99.90
1546;DHT22;766;51.502;9.752;2023-01-15T04:36:16;4.10;99.90
1546;DHT22;766;51.502;9.752;2023-01-15T04:38:44;4.10;99.90
1546;DHT22;766;51.502;9.752;2023-01-15T04:41:12;4.10;99.90
1546;DHT22;766;51.502;9.752;2023-01-15T04:43:58;4.10;99.90
1546;DHT22;766;51.502;9.752;2023-01-15T04:46:37;4.10;99.90
1546;DHT22;766;51.502;9.752;2023-01-15T04:49:10;4.20;99.90
1546;DHT22;766;51.502;9.752;2023-01-15T04:51:38;4.10;99.90
1546;DHT22;766;51.502;9.752;2023-01-15T04:54:09;4.10;99.90
1546;DHT22;766;51.502;9.752;2023-01-15T04:56:39;4.10;99.90
1546;DHT22;766;51.502;9.752;2023-01-15T04:59:08;4.20;99.90
1546;DHT22;766;51.502;9.752;2023-01-15T05:01:39;4.20;99.90
1546;DHT22;766;51.502;9.752;2023-01-15T05:04:21;4.20;99.90
1546;DHT22;766;51.502;9.752;2023-01-15T05:06:50;4.20;99.90
1546;DHT22;766;51.502;9.752;2023-01-15T05:09:19;4.20;99.90
1546;DHT22;766;51.502;9.752;2023-01-15T05:11:47;4.20;99.90
1546;DHT22;766;51.502;9.752;2023-01-15T05:14:15;4.20;99.90
1546;DHT22;766;51.502;9.752;2023-01-15T05:16:43;4.20;99.90
1546;DHT22;766;51.502;9.752;2023-01-15T05:19:12;4.20;99.90
1546;DHT22;766;51.502;9.752;2023-01-15T05:21:43;4.20;99.90
1546;DHT22;766;51.502;9.752;2023-01-15T05:24:14;4.20;99.90
1546;DHT22;766;51.502;9.752;2023-01-15T05:26:43;4.10;99.90
1546;DHT22;766;51.502;9.752;2023-01-15T05:29:12;4.10;99.90
1546;DHT22;766;51.502;9.752;2023-01-15T05:31:40;4.10;99.90
1546;DHT22;766;51.502;9.752;2023-01-15T05:34:11;4.10;99.90
1546;DHT22;766;51.502;9.752;2023-01-15T05:36:41;4.20;99.90
1546;DHT22;766;51.502;9.752;2023-01-15T05:39:10;4.20;99.90
1546;DHT22;766;51.502;9.752;2023-01-15T05:41:38;4.20;99.90
1546;DHT22;766;51.502;9.752;2023-01-15T05:44:18;4.10;99.90
1546;DHT22;766;51.502;9.752;2023-01-15T05:46:48;4.10;99.90
1546;DHT22;766;51.502;9.752;2023-01-15T05:49:17;4.10;99.90
1546;DHT22;766;51.502;9.752;2023-01-15T05:51:48;4.10;99.90
1546;DHT22;766;51.502;9.752;2023-01-15T05:54:20;4.10;99.90
1546;DHT22;766;51.502;9.752;2023-01-15T05:56:49;4.10;99.90
1546;DHT22;766;51.502;9.752;2023-01-15T05:59:19;4.20;99.90
1546;DHT22;766;51.502;9.752;2023-01-15T06:01:48;4.10;99.90
1546;DHT22;766;51.502;9.752;2023-01-15T06:04:17;4.10;99.90
1546;DHT22;766;51.502;9.752;2023-01-15T06:06:49;4.10;99.90
1546;DHT22;766;51.502;9.752;2023-01-15T06:09:18;4.10;99.90
1546;DHT22;766;51.502;9.752;2023-01-15T06:11:46;4.10;99.90
1546;DHT22;766;51.502;9.752;2023-01-15T06:14:15;4.10;99.90
1546;DHT22;766;51.502;9.752;2023-01-15T06:16:43;4.10;99.90
1546;DHT22;766;51.502;9.752;2023-01-15T06:19:13;4.10;99.90
1546;DHT22;766;51.502;9.752;2023-01-15T06:21:41;4.10;99.90
1546;DHT22;766;51.502;9.752;2023-01-15T06:24:11;4.10;99.90
1546;DHT22;766;51.502;9.752;2023-01-15T06:26:42;4.00;99.90
1546;DHT22;766;51.502;9.752;2023-01-15T06:29:10;4.00;99.90
1546;DHT22;766;51.502;9.752;2023-01-15T06:31:41;4.00;99.90
1546;DHT22;766;51.502;9.752;2023-01-15T06:34:10;3.90;99.90
1546;DHT22;766;51.502;9.752;2023-01-15T06:36:38;4.00;99.90
1546;DHT22;766;51.502;9.752;2023-01-15T06:39:06;3.90;99.90
1546;DHT22;766;51.502;9.752;2023-01-15T06:41:36;4.00;99.90
1546;DHT22;766;51.502;9.752;2023-01-15T06:44:22;4.00;99.90
1546;DHT22;766;51.502;9.752;2023-01-15T06:47:12;3.90;99.90
1546;DHT22;766;51.502;9.752;2023-01-15T06:49:52;4.00;99.90
1546;DHT22;766;51.502;9.752;2023-01-15T06:52:21;4.00;99.90
1546;DHT22;766;51.502;9.752;2023-01-15T06:54:50;3.90;99.90
1546;DHT22;766;51.502;9.752;2023-01-15T06:57:20;3.90;99.90
1546;DHT22;766;51.502;9.752;2023-01-15T06:59:49;3.90;99.90
1546;DHT22;766;51.502;9.752;2023-01-15T07:02:18;3.90;99.90
1546;DHT22;766;51.502;9.752;2023-01-15T07:04:47;3.80;99.90
1546;DHT22;766;51.502;9.752;2023-01-15T07:07:17;3.80;99.90
1546;DHT22;766;51.502;9.752;2023-01-15T07:09:46;3.90;99.90
1546;DHT22;766;51.502;9.752;2023-01-15T07:12:15;3.80;99.90
1546;DHT22;766;51.502;9.752;2023-01-15T07:14:44;3.80;99.90
1546;DHT22;766;51.502;9.752;2023-01-15T07:17:13;3.80;99.90
1546;DHT22;766;51.502;9.752;2023-01-15T07:19:42;3.80;99.90
1546;DHT22;766;51.502;9.752;2023-01-15T07:22:11;3.80;99.90
1546;DHT22;766;51.502;9.752;2023-01-15T07:24:39;3.80;99.90
1546;DHT22;766;51.502;9.752;2023-01-15T07:27:07;3.80;99.90
1546;DHT22;766;51.502;9.752;2023-01-15T07:29:35;3.80;99.90
1546;DHT22;766;51.502;9.752;2023-01-15T07:32:05;3.80;99.90
1546;DHT22;766;51.502;9.752;2023-01-15T07:34:34;3.70;99.90
1546;DHT22;766;51.502;9.752;2023-01-15T07:37:06;3.70;99.90
1546;DHT22;766;51.502;9.752;2023-01-15T07:39:34;3.70;99.90
1546;DHT22;766;51.502;9.752;2023-01-15T07:42:03;3.60;99.90
1546;DHT22;766;51.502;9.752;2023-01-15T07:44:49;3.60;99.90
1546;DHT22;766;51.502;9.752;2023-01-15T07:47:35;3.60;99.90
1546;DHT22;766;51.502;9.752;2023-01-15T07:50:23;3.60;99.90
1546;DHT22;766;51.502;9.752;2023-01-15T07:52:55;3.60;99.90
1546;DHT22;766;51.502;9.752;2023-01-15T07:55:23;3.50;99.90
1546;DHT22;766;51.502;9.752;2023-01-15T07:57:52;3.50;99.90
1546;DHT22;766;51.502;9.752;2023-01-15T08:00:22;3.50;99.90
1546;DHT22;766;51.502;9.752;2023-01-15T08:02:51;3.50;99.90
1546;DHT22;766;51.502;9.752;2023-01-15T08:05:20;3.50;99.90
1546;DHT22;766;51.502;9.752;2023-01-15T08:07:48;3.50;99.90
1546;DHT22;766;51.502;9.752;2023-01-15T08:10:16;3.50;99.90
1546;DHT22;766;51.502;9.752;2023-01-15T08:12:49;3.50;99.90
1546;DHT22;766;51.502;9.752;2023-01-15T08:15:38;3.50;99.90
1546;DHT22;766;51.502;9.752;2023-01-15T08:18:10;3.50;99.90
1546;DHT22;766;51.502;9.752;2023-01-15T08:20:38;3.50;99.90
1546;DHT22;766;51.502;9.752;2023-01-15T08:23:07;3.50;99.90
1546;DHT22;766;51.502;9.752;2023-01-15T08:25:36;3.50;99.90
1546;DHT22;766;51.502;9.752;2023-01-15T08:28:05;3.50;99.90
1546;DHT22;766;51.502;9.752;2023-01-15T08:30:33;3.50;99.90
1546;DHT22;766;51.502;9.752;2023-01-15T08:33:01;3.50;99.90
1546;DHT22;766;51.502;9.752;2023-01-15T08:35:32;3.40;99.90
1546;DHT22;766;51.502;9.752;2023-01-15T08:38:03;3.40;99.90
1546;DHT22;766;51.502;9.752;2023-01-15T08:40:32;3.40;99.90
1546;DHT22;766;51.502;9.752;2023-01-15T08:43:02;3.50;99.90
1546;DHT22;766;51.502;9.752;2023-01-15T08:45:30;3.40;99.90
1546;DHT22;766;51.502;9.752;2023-01-15T08:47:58;3.40;99.90
1546;DHT22;766;51.502;9.752;2023-01-15T08:50:27;3.40;99.90
1546;DHT22;766;51.502;9.752;2023-01-15T08:52:57;3.40;99.90
1546;DHT22;766;51.502;9.752;2023-01-15T08:55:25;3.50;99.90
1546;DHT22;766;51.502;9.752;2023-01-15T08:57:55;3.40;99.90
1546;DHT22;766;51.502;9.752;2023-01-15T09:00:23;3.40;99.90
1546;DHT22;766;51.502;9.752;2023-01-15T09:02:51;3.40;99.90
1546;DHT22;766;51.502;9.752;2023-01-15T09:05:20;3.40;99.90
1546;DHT22;766;51.502;9.752;2023-01-15T09:07:48;3.40;99.90
1546;DHT22;766;51.502;9.752;2023-01-15T09:10:18;3.40;99.90
1546;DHT22;766;51.502;9.752;2023-01-15T09:12:47;3.40;99.90
1546;DHT22;766;51.502;9.752;2023-01-15T09:15:16;3.40;99.90
1546;DHT22;766;51.502;9.752;2023-01-15T09:17:44;3.50;99.90
1546;DHT22;766;51.502;9.752;2023-01-15T09:20:13;3.50;99.90
1546;DHT22;766;51.502;9.752;2023-01-15T09:22:41;3.50;99.90
1546;DHT22;766;51.502;9.752;2023-01-15T09:25:10;3.50;99.90
1546;DHT22;766;51.502;9.752;2023-01-15T09:27:39;3.50;99.90
1546;DHT22;766;51.502;9.752;2023-01-15T09:30:10;3.50;99.90
1546;DHT22;766;51.502;9.752;2023-01-15T09:32:42;3.50;99.90
1546;DHT22;766;51.502;9.752;2023-01-15T09:35:10;3.50;99.90
1546;DHT22;766;51.502;9.752;2023-01-15T09:37:39;3.50;99.90
1546;DHT22;766;51.502;9.752;2023-01-15T09:40:22;3.50;99.90
1546;DHT22;766;51.502;9.752;2023-01-15T09:42:59;3.50;99.90
1546;DHT22;766;51.502;9.752;2023-01-15T09:45:33;3.50;99.90
1546;DHT22;766;51.502;9.752;2023-01-15T09:48:17;3.50;99.90
1546;DHT22;766;51.502;9.752;2023-01-15T09:50:56;3.50;99.90
1546;DHT22;766;51.502;9.752;2023-01-15T09:53:40;3.50;99.90
1546;DHT22;766;51.502;9.752;2023-01-15T09:56:21;3.50;99.90
1546;DHT22;766;51.502;9.752;2023-01-15T09:58:53;3.50;99.90
1546;DHT22;766;51.502;9.752;2023-01-15T10:01:26;3.50;99.90
1546;DHT22;766;51.502;9.752;2023-01-15T10:04:00;3.50;99.90
1546;DHT22;766;51.502;9.752;2023-01-15T10:06:33;3.60;99.90
1546;DHT22;766;51.502;9.752;2023-01-15T10:09:11;3.60;99.90
1546;DHT22;766;51.502;9.752;2023-01-15T10:11:44;3.60;99.90
1546;DHT22;766;51.502;9.752;2023-01-15T10:14:41;3.60;99.90
1546;DHT22;766;51.502;9.752;2023-01-15T10:17:18;3.60;99.90
1546;DHT22;766;51.502;9.752;2023-01-15T10:19:48;3.60;99.90
1546;DHT22;766;51.502;9.752;2023-01-15T10:22:27;3.70;99.90
1546;DHT22;766;51.502;9.752;2023-01-15T10:25:01;3.70;99.90
1546;DHT22;766;51.502;9.752;2023-01-15T10:27:32;3.70;99.90
1546;DHT22;766;51.502;9.752;2023-01-15T10:30:13;3.70;99.90
1546;DHT22;766;51.502;9.752;2023-01-15T10:32:44;3.70;99.90
1546;DHT22;766;51.502;9.752;2023-01-15T10:35:38;3.70;99.90
1546;DHT22;766;51.502;9.752;2023-01-15T10:38:15;3.80;99.90
1546;DHT22;766;51.502;9.752;2023-01-15T10:41:18;3.80;99.90
1546;DHT22;766;51.502;9.752;2023-01-15T10:43:52;3.80;99.90
1546;DHT22;766;51.502;9.752;2023-01-15T10:46:26;3.80;99.90
1546;DHT22;766;51.502;9.752;2023-01-15T10:49:03;3.90;99.90
1546;DHT22;766;51.502;9.752;2023-01-15T10:51:37;3.90;99.90
1546;DHT22;766;51.502;9.752;2023-01-15T10:54:13;3.90;99.90
1546;DHT22;766;51.502;9.752;2023-01-15T10:56:47;3.90;99.90
1546;DHT22;766;51.502;9.752;2023-01-15T10:59:21;3.90;99.90
1546;DHT22;766;51.502;9.752;2023-01-15T11:01:54;3.90;99.90
1546;DHT22;766;51.502;9.752;2023-01-15T11:04:30;4.00;99.90
1546;DHT22;766;51.502;9.752;2023-01-15T11:06:59;3.90;99.90
1546;DHT22;766;51.502;9.752;2023-01-15T11:09:29;3.90;99.90
1546;DHT22;766;51.502;9.752;2023-01-15T11:12:16;4.00;99.90
1546;DHT22;766;51.502;9.752;2023-01-15T11:15:14;3.90;99.90
1546;DHT22;766;51.502;9.752;2023-01-15T11:18:02;3.90;99.90
1546;DHT22;766;51.502;9.752;2023-01-15T11:20:55;3.90;99.90
1546;DHT22;766;51.502;9.752;2023-01-15T11:23:24;3.90;99.90
1546;DHT22;766;51.502;9.752;2023-01-15T11:25:55;4.00;99.90
1546;DHT22;766;51.502;9.752;2023-01-15T11:28:33;4.00;99.90
1546;DHT22;766;51.502;9.752;2023-01-15T11:31:02;3.90;99.90
1546;DHT22;766;51.502;9.752;2023-01-15T11:33:32;4.00;99.90
1546;DHT22;766;51.502;9.752;2023-01-15T11:36:02;3.90;99.90
1546;DHT22;766;51.502;9.752;2023-01-15T11:38:43;3.90;99.90
1546;DHT22;766;51.502;9.752;2023-01-15T11:41:23;4.10;99.90
1546;DHT22;766;51.502;9.752;2023-01-15T11:44:12;4.20;99.90
1546;DHT22;766;51.502;9.752;2023-01-15T11:46:58;4.30;99.90
1546;DHT22;766;51.502;9.752;2023-01-15T11:49:50;4.30;99.90
1546;DHT22;766;51.502;9.752;2023-01-15T11:52:33;4.30;99.90
1546;DHT22;766;51.502;9.752;2023-01-15T11:55:10;4.40;99.90
1546;DHT22;766;51.502;9.752;2023-01-15T11:57:40;4.30;99.90
1546;DHT22;766;51.502;9.752;2023-01-15T12:00:19;4.30;99.90
1546;DHT22;766;51.502;9.752;2023-01-15T12:02:53;4.40;99.90
1546;DHT22;766;51.502;9.752;2023-01-15T12:05:33;4.40;99.90
1546;DHT22;766;51.502;9.752;2023-01-15T12:08:13;4.30;99.90
1546;DHT22;766;51.502;9.752;2023-01-15T12:10:48;4.30;99.90
1546;DHT22;766;51.502;9.752;2023-01-15T12:13:58;4.30;99.90
1546;DHT22;766;51.502;9.752;2023-01-15T12:16:36;4.30;99.90
1546;DHT22;766;51.502;9.752;2023-01-15T12:19:10;4.40;99.90
1546;DHT22;766;51.502;9.752;2023-01-15T12:25:13;4.30;99.90
1546;DHT22;766;51.502;9.752;2023-01-15T12:27:54;4.30;99.90
1546;DHT22;766;51.502;9.752;2023-01-15T12:30:28;4.30;99.90
1546;DHT22;766;51.502;9.752;2023-01-15T12:33:09;4.30;99.90
1546;DHT22;766;51.502;9.752;2023-01-15T12:35:43;4.30;99.90
1546;DHT22;766;51.502;9.752;2023-01-15T12:38:21;4.30;99.90
1546;DHT22;766;51.502;9.752;2023-01-15T12:40:57;4.30;99.90
1546;DHT22;766;51.502;9.752;2023-01-15T12:43:27;4.40;99.90
1546;DHT22;766;51.502;9.752;2023-01-15T12:46:18;4.40;99.90
1546;DHT22;766;51.502;9.752;2023-01-15T12:48:51;4.50;99.90
1546;DHT22;766;51.502;9.752;2023-01-15T12:51:25;4.50;99.90
1546;DHT22;766;51.502;9.752;2023-01-15T12:53:59;4.60;99.90
1546;DHT22;766;51.502;9.752;2023-01-15T12:56:40;4.70;99.90
1546;DHT22;766;51.502;9.752;2023-01-15T12:59:15;4.80;99.90
1546;DHT22;766;51.502;9.752;2023-01-15T13:01:51;4.90;99.90
1546;DHT22;766;51.502;9.752;2023-01-15T13:04:27;5.10;99.90
1546;DHT22;766;51.502;9.752;2023-01-15T13:07:02;5.20;99.90
1546;DHT22;766;51.502;9.752;2023-01-15T13:09:38;5.20;99.90
1546;DHT22;766;51.502;9.752;2023-01-15T13:12:14;5.30;99.90
1546;DHT22;766;51.502;9.752;2023-01-15T13:14:43;5.40;99.90
1546;DHT22;766;51.502;9.752;2023-01-15T13:17:19;5.20;99.90
1546;DHT22;766;51.502;9.752;2023-01-15T13:20:12;5.20;99.90
1546;DHT22;766;51.502;9.752;2023-01-15T13:22:53;5.20;99.90
1546;DHT22;766;51.502;9.752;2023-01-15T13:25:45;5.00;99.90
1546;DHT22;766;51.502;9.752;2023-01-15T13:28:31;5.00;99.90
1546;DHT22;766;51.502;9.752;2023-01-15T13:31:10;4.90;99.90
1546;DHT22;766;51.502;9.752;2023-01-15T13:33:42;4.90;99.90
1546;DHT22;766;51.502;9.752;2023-01-15T13:36:14;4.90;99.90
1546;DHT22;766;51.502;9.752;2023-01-15T13:38:45;5.00;99.90
1546;DHT22;766;51.502;9.752;2023-01-15T13:41:19;4.90;99.90
1546;DHT22;766;51.502;9.752;2023-01-15T13:44:02;5.20;99.90
1546;DHT22;766;51.502;9.752;2023-01-15T13:46:31;5.50;99.90
1546;DHT22;766;51.502;9.752;2023-01-15T13:48:59;5.50;99.90
1546;DHT22;766;51.502;9.752;2023-01-15T13:51:29;5.40;99.90
1546;DHT22;766;51.502;9.752;2023-01-15T13:54:00;5.40;99.90
1546;DHT22;766;51.502;9.752;2023-01-15T13:56:31;5.50;99.90
1546;DHT22;766;51.502;9.752;2023-01-15T13:59:05;5.50;99.90
1546;DHT22;766;51.502;9.752;2023-01-15T14:01:35;5.60;99.90
1546;DHT22;766;51.502;9.752;2023-01-15T14:04:05;5.50;99.90
1546;DHT22;766;51.502;9.752;2023-01-15T14:06:40;5.50;99.90
1546;DHT22;766;51.502;9.752;2023-01-15T14:09:10;5.30;99.90
1546;DHT22;766;51.502;9.752;2023-01-15T14:11:47;5.20;99.90
1546;DHT22;766;51.502;9.752;2023-01-15T14:14:42;5.20;99.90
1546;DHT22;766;51.502;9.752;2023-01-15T14:20:44;5.20;99.90
1546;DHT22;766;51.502;9.752;2023-01-15T14:23:44;5.10;99.90
1546;DHT22;766;51.502;9.752;2023-01-15T14:26:26;5.10;99.90
1546;DHT22;766;51.502;9.752;2023-01-15T14:29:05;5.00;99.90
1546;DHT22;766;51.502;9.752;2023-01-15T14:31:45;5.00;99.90
1546;DHT22;766;51.502;9.752;2023-01-15T14:34:19;5.00;99.90
1546;DHT22;766;51.502;9.752;2023-01-15T14:36:56;5.00;99.90
1546;DHT22;766;51.502;9.752;2023-01-15T14:39:38;5.00;99.90
1546;DHT22;766;51.502;9.752;2023-01-15T14:42:12;4.90;99.90
1546;DHT22;766;51.502;9.752;2023-01-15T14:45:04;5.00;99.90
1546;DHT22;766;51.502;9.752;2023-01-15T14:47:35;4.90;99.90
1546;DHT22;766;51.502;9.752;2023-01-15T14:50:28;4.90;99.90
1546;DHT22;766;51.502;9.752;2023-01-15T14:53:14;4.90;99.90
1546;DHT22;766;51.502;9.752;2023-01-15T14:55:47;4.80;99.90
1546;DHT22;766;51.502;9.752;2023-01-15T14:58:33;4.80;99.90
1546;DHT22;766;51.502;9.752;2023-01-15T15:01:13;4.80;99.90
1546;DHT22;766;51.502;9.752;2023-01-15T15:03:52;4.80;99.90
1546;DHT22;766;51.502;9.752;2023-01-15T15:06:23;4.80;99.90
1546;DHT22;766;51.502;9.752;2023-01-15T15:08:56;4.70;99.90
1546;DHT22;766;51.502;9.752;2023-01-15T15:11:35;4.70;99.90
1546;DHT22;766;51.502;9.752;2023-01-15T15:14:25;4.60;99.90
1546;DHT22;766;51.502;9.752;2023-01-15T15:17:00;4.60;99.90
1546;DHT22;766;51.502;9.752;2023-01-15T15:19:37;4.50;99.90
1546;DHT22;766;51.502;9.752;2023-01-15T15:22:10;4.60;99.90
1546;DHT22;766;51.502;9.752;2023-01-15T15:24:45;4.50;99.90
1546;DHT22;766;51.502;9.752;2023-01-15T15:27:15;4.50;99.90
1546;DHT22;766;51.502;9.752;2023-01-15T15:29:46;4.50;99.90
1546;DHT22;766;51.502;9.752;2023-01-15T15:32:21;4.60;99.90
1546;DHT22;766;51.502;9.752;2023-01-15T15:34:55;4.60;99.90
1546;DHT22;766;51.502;9.752;2023-01-15T15:37:26;4.70;99.90
1546;DHT22;766;51.502;9.752;2023-01-15T15:40:01;4.60;99.90
1546;DHT22;766;51.502;9.752;2023-01-15T15:42:35;4.60;99.90
1546;DHT22;766;51.502;9.752;2023-01-15T15:45:25;4.60;99.90
1546;DHT22;766;51.502;9.752;2023-01-15T15:48:17;4.60;99.90
1546;DHT22;766;51.502;9.752;2023-01-15T15:51:04;4.60;99.90
1546;DHT22;766;51.502;9.752;2023-01-15T15:53:35;4.50;99.90
1546;DHT22;766;51.502;9.752;2023-01-15T15:56:05;4.50;99.90
1546;DHT22;766;51.502;9.752;2023-01-15T15:58:35;4.60;99.90
1546;DHT22;766;51.502;9.752;2023-01-15T16:01:10;4.50;99.90
1546;DHT22;766;51.502;9.752;2023-01-15T16:03:46;4.50;99.90
1546;DHT22;766;51.502;9.752;2023-01-15T16:06:19;4.50;99.90
1546;DHT22;766;51.502;9.752;2023-01-15T16:08:52;4.50;99.90
1546;DHT22;766;51.502;9.752;2023-01-15T16:11:23;4.40;99.90
1546;DHT22;766;51.502;9.752;2023-01-15T16:13:54;4.50;99.90
1546;DHT22;766;51.502;9.752;2023-01-15T16:16:26;4.40;99.90
1546;DHT22;766;51.502;9.752;2023-01-15T16:18:59;4.40;99.90
1546;DHT22;766;51.502;9.752;2023-01-15T16:21:30;4.40;99.90
1546;DHT22;766;51.502;9.752;2023-01-15T16:24:00;4.40;99.90
1546;DHT22;766;51.502;9.752;2023-01-15T16:26:32;4.40;99.90
1546;DHT22;766;51.502;9.752;2023-01-15T16:29:03;4.40;99.90
1546;DHT22;766;51.502;9.752;2023-01-15T16:31:35;4.40;99.90
1546;DHT22;766;51.502;9.752;2023-01-15T16:34:16;4.40;99.90
1546;DHT22;766;51.502;9.752;2023-01-15T16:36:47;4.40;99.90
1546;DHT22;766;51.502;9.752;2023-01-15T16:39:21;4.40;99.90
1546;DHT22;766;51.502;9.752;2023-01-15T16:41:53;4.40;99.90
1546;DHT22;766;51.502;9.752;2023-01-15T16:44:30;4.40;99.90
1546;DHT22;766;51.502;9.752;2023-01-15T16:47:00;4.30;99.90
1546;DHT22;766;51.502;9.752;2023-01-15T16:49:31;4.40;99.90
1546;DHT22;766;51.502;9.752;2023-01-15T16:52:01;4.40;99.90
1546;DHT22;766;51.502;9.752;2023-01-15T16:54:44;4.40;99.90
1546;DHT22;766;51.502;9.752;2023-01-15T16:57:31;4.30;99.90
1546;DHT22;766;51.502;9.752;2023-01-15T17:00:05;4.30;99.90
1546;DHT22;766;51.502;9.752;2023-01-15T17:02:43;4.30;99.90
1546;DHT22;766;51.502;9.752;2023-01-15T17:05:20;4.30;99.90
1546;DHT22;766;51.502;9.752;2023-01-15T17:07:53;4.30;99.90
1546;DHT22;766;51.502;9.752;2023-01-15T17:10:25;4.30;99.90
1546;DHT22;766;51.502;9.752;2023-01-15T17:12:58;4.30;99.90
1546;DHT22;766;51.502;9.752;2023-01-15T17:15:39;4.30;99.90
1546;DHT22;766;51.502;9.752;2023-01-15T17:18:20;4.30;99.90
1546;DHT22;766;51.502;9.752;2023-01-15T17:20:54;4.30;99.90
1546;DHT22;766;51.502;9.752;2023-01-15T17:23:27;4.30;99.90